Time;durP1;ratioP1;P1;durP2;ratioP2;P2;SDS_P1;SDS_P2;PMS_P1;PMS_P2;Temp;Humidity;BMP_temperature;BMP_pressure;BME280_temperature;BME280_humidity;BME280_pressure;Samples;Min_cycle;Max_cycle;Signal;HPM_P1;HPM_P2
2021/12/28 04:03:06;;;;;;;15.73;3.90;;;7.20;94.80;;;;;;5133731;27;20559;-50
2021/12/28 04:05:32;;;;;;;18.73;3.63;;;7.30;95.00;;;;;;5132790;28;20035;-49
2021/12/28 04:07:58;;;;;;;16.73;4.15;;;7.20;94.80;;;;;;5114500;28;20386;-51
2021/12/28 04:10:31;;;;;;;13.70;3.80;;;7.30;94.90;;;;;;5132793;28;20026;-49
2021/12/28 04:12:57;;;;;;;17.48;3.92;;;7.40;94.70;;;;;;5133851;28;20497;-50
2021/12/28 04:15:23;;;;;;;21.50;4.22;;;7.40;94.60;;;;;;5133301;28;20467;-52
2021/12/28 04:17:49;;;;;;;16.70;4.05;;;7.50;94.60;;;;;;5132402;28;20023;-51
2021/12/28 04:20:18;;;;;;;18.70;3.72;;;7.40;94.30;;;;;;5132595;27;20031;-49
2021/12/28 04:22:45;;;;;;;29.47;6.17;;;7.30;94.10;;;;;;5132365;27;20375;-53
2021/12/28 04:25:12;;;;;;;14.00;4.45;;;7.30;94.10;;;;;;5131161;28;20604;-39
2021/12/28 04:27:38;;;;;;;16.40;3.58;;;7.30;94.10;;;;;;5131499;27;20027;-38
2021/12/28 04:30:07;;;;;;;13.75;3.58;;;7.50;94.20;;;;;;5131881;27;20063;-38
2021/12/28 04:32:33;;;;;;;29.02;6.45;;;7.40;93.80;;;;;;5132385;28;20051;-38
2021/12/28 04:34:58;;;;;;;18.23;4.00;;;7.50;93.90;;;;;;5132281;27;20027;-49
2021/12/28 04:37:25;;;;;;;23.70;3.47;;;7.50;93.90;;;;;;5131883;27;20034;-51
2021/12/28 04:39:50;;;;;;;19.23;3.70;;;7.70;93.70;;;;;;5132410;27;20028;-50
2021/12/28 04:42:16;;;;;;;37.83;5.65;;;7.60;93.60;;;;;;5132549;27;20076;-49
2021/12/28 04:44:42;;;;;;;29.70;4.85;;;7.80;93.40;;;;;;5133276;27;20022;-49
2021/12/28 04:47:08;;;;;;;18.88;5.28;;;8.00;93.10;;;;;;5132308;27;20068;-53
2021/12/28 04:49:34;;;;;;;20.80;4.63;;;7.90;92.60;;;;;;5130628;28;20023;-52
2021/12/28 04:52:01;;;;;;;24.95;6.60;;;7.90;92.60;;;;;;5131489;27;20098;-49
2021/12/28 04:54:27;;;;;;;30.77;6.20;;;8.00;92.70;;;;;;5131172;27;20039;-51
2021/12/28 04:56:52;;;;;;;23.95;5.03;;;8.20;92.60;;;;;;5131234;27;20054;-53
2021/12/28 04:59:19;;;;;;;18.77;3.60;;;8.20;92.00;;;;;;5130709;27;20055;-48
2021/12/28 05:01:45;;;;;;;27.30;3.75;;;8.20;92.20;;;;;;5130295;27;20126;-48
2021/12/28 05:04:11;;;;;;;26.73;4.45;;;8.30;92.20;;;;;;5130085;27;20098;-51
2021/12/28 05:06:37;;;;;;;23.65;4.68;;;8.30;91.80;;;;;;5130334;27;20043;-51
2021/12/28 05:09:10;;;;;;;15.52;4.18;;;8.40;91.80;;;;;;5130526;27;20024;-48
2021/12/28 05:11:37;;;;;;;18.98;4.20;;;8.50;91.60;;;;;;5130055;27;20027;-48
2021/12/28 05:14:04;;;;;;;18.70;4.35;;;8.60;91.40;;;;;;5118988;27;20524;-51
2021/12/28 05:16:33;;;;;;;25.73;4.43;;;8.70;91.10;;;;;;5116626;28;20027;-49
2021/12/28 05:19:00;;;;;;;24.38;6.72;;;8.60;91.10;;;;;;5116969;28;20028;-50
2021/12/28 05:21:25;;;;;;;24.55;6.00;;;8.60;91.30;;;;;;5116788;28;20436;-54
2021/12/28 05:23:51;;;;;;;23.95;4.57;;;8.50;91.20;;;;;;5116614;28;20151;-51
2021/12/28 05:26:17;;;;;;;27.13;5.40;;;8.60;91.50;;;;;;5116725;28;20055;-51
2021/12/28 05:28:43;;;;;;;18.50;3.90;;;8.70;91.30;;;;;;5116530;28;20057;-49
2021/12/28 05:31:10;;;;;;;16.88;3.97;;;8.50;91.30;;;;;;5116175;27;20072;-53
2021/12/28 05:33:36;;;;;;;19.95;4.97;;;8.50;91.60;;;;;;5116345;28;20031;-53
2021/12/28 05:36:01;;;;;;;13.88;3.80;;;8.50;91.60;;;;;;5116120;28;20019;-50
2021/12/28 05:38:27;;;;;;;21.95;4.82;;;8.50;91.50;;;;;;5116545;28;20103;-50
2021/12/28 05:40:53;;;;;;;16.02;3.83;;;8.60;91.70;;;;;;5116579;28;20024;-50
2021/12/28 05:43:18;;;;;;;16.85;3.67;;;8.60;91.50;;;;;;5115870;28;20020;-53
2021/12/28 05:45:44;;;;;;;25.52;4.93;;;8.60;91.60;;;;;;5116238;28;20019;-53
2021/12/28 05:48:11;;;;;;;19.40;4.85;;;8.70;91.60;;;;;;5117160;28;20085;-53
2021/12/28 05:50:37;;;;;;;19.58;3.20;;;8.80;91.50;;;;;;5117024;28;20028;-53
2021/12/28 05:53:03;;;;;;;17.63;4.65;;;8.80;91.10;;;;;;5116377;28;20380;-54
2021/12/28 05:55:29;;;;;;;22.65;4.63;;;8.80;91.10;;;;;;5116869;28;20052;-53
2021/12/28 05:57:54;;;;;;;23.67;5.72;;;8.80;91.30;;;;;;5116698;28;20026;-53
2021/12/28 06:00:20;;;;;;;12.88;3.42;;;8.80;90.90;;;;;;5116804;28;20429;-51
2021/12/28 06:02:46;;;;;;;17.02;4.50;;;8.60;91.20;;;;;;5116641;28;20165;-52
2021/12/28 06:05:12;;;;;;;23.33;3.63;;;8.40;91.40;;;;;;5116661;28;20387;-53
2021/12/28 06:07:38;;;;;;;15.88;2.55;;;8.40;91.80;;;;;;5117380;28;20056;-49
2021/12/28 06:10:05;;;;;;;12.45;2.97;;;8.40;92.40;;;;;;5116171;28;20024;-49
2021/12/28 06:12:31;;;;;;;18.83;3.35;;;8.50;92.30;;;;;;5116204;28;20157;-47
2021/12/28 06:14:56;;;;;;;24.75;4.15;;;8.50;92.20;;;;;;5116093;28;20093;-48
2021/12/28 06:17:22;;;;;;;17.58;3.92;;;8.50;91.80;;;;;;5116623;28;20034;-50
2021/12/28 06:19:48;;;;;;;14.77;3.50;;;8.40;91.90;;;;;;5115928;28;20035;-47
2021/12/28 06:22:14;;;;;;;12.50;3.45;;;8.30;92.10;;;;;;5116365;28;20050;-53
2021/12/28 06:24:40;;;;;;;18.70;5.32;;;8.30;92.20;;;;;;5115390;28;20387;-48
2021/12/28 06:27:06;;;;;;;14.70;3.40;;;8.10;92.60;;;;;;5115328;28;20024;-49
2021/12/28 06:29:32;;;;;;;22.88;5.05;;;8.00;92.80;;;;;;5115867;28;20047;-50
2021/12/28 06:31:57;;;;;;;19.65;3.15;;;8.10;93.10;;;;;;5115552;28;20121;-47
2021/12/28 06:34:23;;;;;;;9.65;3.28;;;8.10;93.10;;;;;;5114731;28;20023;-51
2021/12/28 06:36:49;;;;;;;20.60;3.60;;;8.10;93.10;;;;;;5116087;28;20039;-52
2021/12/28 06:39:14;;;;;;;18.17;3.63;;;8.30;93.00;;;;;;5115778;28;20028;-49
2021/12/28 06:41:40;;;;;;;20.67;3.83;;;8.40;92.80;;;;;;5114552;28;20080;-51
2021/12/28 06:44:09;;;;;;;18.55;4.07;;;8.30;92.70;;;;;;5115314;27;20369;-52
2021/12/28 06:46:35;;;;;;;22.65;6.45;;;8.30;92.60;;;;;;5115196;28;20015;-52
2021/12/28 06:49:01;;;;;;;17.88;4.88;;;8.40;92.90;;;;;;5115497;27;20114;-50
2021/12/28 06:51:27;;;;;;;15.57;3.95;;;8.60;92.30;;;;;;5115323;28;20055;-49
2021/12/28 06:53:53;;;;;;;10.73;3.05;;;8.50;91.90;;;;;;5113552;28;20032;-49
2021/12/28 06:56:18;;;;;;;15.23;3.78;;;8.40;91.80;;;;;;5114941;28;20106;-49
2021/12/28 06:58:44;;;;;;;25.35;6.20;;;8.40;92.10;;;;;;5114682;28;20050;-49
2021/12/28 07:01:11;;;;;;;10.20;2.95;;;8.40;92.20;;;;;;5114189;28;20049;-49
2021/12/28 07:03:37;;;;;;;11.32;4.15;;;8.40;92.40;;;;;;5115642;28;20035;-50
2021/12/28 07:06:03;;;;;;;8.82;3.88;;;8.50;92.30;;;;;;5115911;28;20023;-50
2021/12/28 07:08:29;;;;;;;13.05;3.75;;;8.70;91.70;;;;;;5116630;28;20028;-49
2021/12/28 07:10:55;;;;;;;8.25;3.60;;;8.60;91.40;;;;;;5115231;28;20077;-52
2021/12/28 07:13:21;;;;;;;9.88;3.50;;;8.50;91.80;;;;;;5116112;28;20023;-48
2021/12/28 07:15:46;;;;;;;14.88;5.18;;;8.60;91.70;;;;;;5114372;28;20028;-52
2021/12/28 07:18:12;;;;;;;16.02;3.95;;;8.50;92.00;;;;;;5114560;28;20390;-50
2021/12/28 07:20:38;;;;;;;16.33;4.90;;;8.70;91.70;;;;;;5114370;28;20016;-49
2021/12/28 07:23:04;;;;;;;10.35;3.50;;;8.50;91.60;;;;;;5114518;28;20520;-50
2021/12/28 07:25:29;;;;;;;11.77;3.25;;;8.70;91.70;;;;;;5115315;28;20024;-48
2021/12/28 07:27:56;;;;;;;10.50;3.45;;;8.80;91.40;;;;;;5114638;28;20055;-51
2021/12/28 07:30:21;;;;;;;10.63;3.95;;;8.80;91.20;;;;;;5114314;28;20430;-48
2021/12/28 07:32:47;;;;;;;7.70;3.15;;;8.80;90.90;;;;;;5113345;28;20122;-50
2021/12/28 07:35:13;;;;;;;7.28;3.45;;;8.80;91.00;;;;;;5114326;27;20174;-50
2021/12/28 07:37:39;;;;;;;8.45;3.30;;;8.80;90.90;;;;;;5113820;28;20520;-48
2021/12/28 07:40:07;;;;;;;10.07;3.60;;;9.00;90.50;;;;;;5114363;28;20028;-48
2021/12/28 07:42:34;;;;;;;8.23;2.90;;;8.90;90.70;;;;;;5113996;28;20072;-49
2021/12/28 07:45:00;;;;;;;9.52;3.78;;;8.90;90.80;;;;;;5113954;28;20035;-48
2021/12/28 07:47:26;;;;;;;12.73;3.13;;;9.00;90.50;;;;;;5114634;28;20143;-52
2021/12/28 07:49:52;;;;;;;11.25;3.97;;;8.90;90.70;;;;;;5114586;28;20030;-52
2021/12/28 07:52:17;;;;;;;7.32;3.33;;;9.00;90.70;;;;;;5113457;28;20032;-48
2021/12/28 07:54:43;;;;;;;5.63;3.00;;;9.10;90.40;;;;;;5113971;28;20050;-48
2021/12/28 07:57:08;;;;;;;8.32;2.85;;;9.10;90.20;;;;;;5113709;28;20026;-53
2021/12/28 07:59:34;;;;;;;7.38;3.42;;;9.10;90.20;;;;;;5113602;28;20028;-50
2021/12/28 14:03:07;;;;;;;35.60;5.75;;;10.00;85.70;;;;;;5112251;27;20154;-55
2021/12/28 14:05:34;;;;;;;14.48;3.85;;;10.10;84.30;;;;;;5111953;28;20077;-51
2021/12/28 14:08:03;;;;;;;24.13;4.30;;;10.20;83.90;;;;;;5111789;28;20027;-55
2021/12/28 14:10:31;;;;;;;17.45;6.30;;;10.20;83.30;;;;;;5111325;28;20126;-50
2021/12/28 14:13:10;;;;;;;14.05;2.70;;;10.30;83.30;;;;;;5112250;28;20044;-53
2021/12/28 14:16:11;;;;;;;31.38;6.82;;;10.30;82.90;;;;;;5111452;28;20020;-53
2021/12/28 14:18:42;;;;;;;17.77;5.15;;;10.30;83.50;;;;;;5068723;28;20118;-54
2021/12/28 14:21:11;;;;;;;39.72;7.07;;;10.30;82.90;;;;;;5103678;28;20031;-53
2021/12/28 14:23:37;;;;;;;20.92;5.68;;;10.40;82.60;;;;;;5110924;28;20336;-52
2021/12/28 14:26:07;;;;;;;22.15;4.05;;;10.50;81.60;;;;;;5111162;28;20031;-55
2021/12/28 14:28:35;;;;;;;28.45;4.10;;;10.40;82.60;;;;;;5111014;28;20016;-53
2021/12/28 14:31:19;;;;;;;28.10;5.00;;;10.40;82.90;;;;;;5111230;28;20388;-51
2021/12/28 14:33:57;;;;;;;19.73;4.78;;;10.40;82.00;;;;;;5110339;28;20020;-52
2021/12/28 14:36:31;;;;;;;26.08;5.55;;;10.40;82.50;;;;;;5111051;28;20421;-49
2021/12/28 14:39:11;;;;;;;24.75;5.78;;;10.30;82.60;;;;;;5110995;28;20529;-50
2021/12/28 14:41:39;;;;;;;31.40;6.30;;;10.40;81.40;;;;;;5111191;28;20055;-53
2021/12/28 14:44:22;;;;;;;25.67;5.57;;;10.40;81.20;;;;;;5110483;28;20428;-49
2021/12/28 14:46:51;;;;;;;27.30;5.95;;;10.30;81.30;;;;;;5110639;28;20518;-53
2021/12/28 14:49:37;;;;;;;29.92;8.07;;;10.30;81.70;;;;;;5110665;28;20028;-48
2021/12/28 14:52:08;;;;;;;21.80;7.20;;;10.30;81.90;;;;;;5108998;28;20023;-53
2021/12/28 14:54:34;;;;;;;25.40;6.30;;;10.30;82.10;;;;;;5110813;28;20455;-52
2021/12/28 14:57:00;;;;;;;23.50;5.93;;;10.10;83.10;;;;;;5111129;28;20027;-52
2021/12/28 14:59:27;;;;;;;26.05;6.10;;;10.20;82.20;;;;;;5109291;28;20114;-53
2021/12/28 15:01:56;;;;;;;18.40;5.20;;;10.10;82.30;;;;;;5110097;28;20133;-50
2021/12/28 15:04:22;;;;;;;19.20;4.70;;;10.20;82.40;;;;;;5110929;28;20437;-52
2021/12/28 15:06:58;;;;;;;22.73;5.20;;;10.10;82.60;;;;;;5111176;28;20084;-52
2021/12/28 15:09:37;;;;;;;14.88;4.90;;;10.10;83.00;;;;;;5111663;28;20016;-51
2021/12/28 15:12:11;;;;;;;23.00;6.13;;;10.00;83.70;;;;;;5110418;28;20434;-54
2021/12/28 15:14:37;;;;;;;22.13;4.47;;;9.80;84.80;;;;;;5097461;28;20537;-53
2021/12/28 15:17:05;;;;;;;33.83;6.68;;;9.80;85.00;;;;;;5096831;28;20035;-50
2021/12/28 15:19:32;;;;;;;15.50;5.13;;;9.80;85.30;;;;;;5096526;28;20052;-50
2021/12/28 15:22:00;;;;;;;32.63;6.50;;;9.70;85.20;;;;;;5097327;28;20062;-52
2021/12/28 15:24:26;;;;;;;27.42;6.18;;;9.70;85.60;;;;;;5094936;28;20024;-52
2021/12/28 15:26:52;;;;;;;31.60;5.85;;;9.50;86.60;;;;;;5096486;28;20073;-52
2021/12/28 15:29:19;;;;;;;32.65;7.70;;;9.50;86.70;;;;;;5094847;28;20027;-51
2021/12/28 15:31:46;;;;;;;18.08;3.90;;;9.70;84.00;;;;;;5096910;28;20103;-50
2021/12/28 15:34:19;;;;;;;9.90;2.38;;;9.70;82.00;;;;;;5100284;28;20072;-51
2021/12/28 15:36:44;;;;;;;9.23;1.15;;;9.60;79.50;;;;;;5100026;28;20393;-50
2021/12/28 15:39:18;;;;;;;12.60;1.80;;;9.50;79.20;;;;;;5097559;28;20051;-51
2021/12/28 15:41:46;;;;;;;4.22;1.48;;;9.40;79.20;;;;;;5100945;28;20028;-50
2021/12/28 15:44:12;;;;;;;5.55;1.67;;;9.30;79.10;;;;;;5095662;28;20433;-50
2021/12/28 15:46:40;;;;;;;11.48;1.80;;;9.30;79.80;;;;;;5096099;28;20032;-54
2021/12/28 15:49:11;;;;;;;6.78;1.77;;;9.20;80.10;;;;;;5096561;28;20024;-51
2021/12/28 15:51:38;;;;;;;4.35;1.75;;;9.10;80.60;;;;;;5095621;28;20436;-52
2021/12/28 15:54:06;;;;;;;10.32;1.50;;;9.00;81.00;;;;;;5095444;28;20020;-50
2021/12/28 15:56:33;;;;;;;1.45;0.73;;;8.90;81.30;;;;;;5095347;28;20376;-48
2021/12/28 15:58:59;;;;;;;7.00;1.40;;;8.90;81.00;;;;;;5096486;28;20028;-51
2021/12/28 16:01:24;;;;;;;6.05;1.25;;;8.90;81.00;;;;;;5095180;28;20047;-51
2021/12/28 16:03:51;;;;;;;4.63;1.67;;;8.90;80.60;;;;;;5095205;28;20024;-49
2021/12/28 16:06:17;;;;;;;5.55;1.60;;;8.80;81.00;;;;;;5095283;28;20047;-49
2021/12/28 16:08:44;;;;;;;2.25;0.80;;;8.80;81.20;;;;;;5096103;28;20016;-52
2021/12/28 16:11:12;;;;;;;2.90;0.98;;;8.80;81.10;;;;;;5095120;28;20434;-50
2021/12/28 16:13:39;;;;;;;2.72;0.90;;;8.80;81.30;;;;;;5094885;28;20406;-49
2021/12/28 16:16:05;;;;;;;6.88;2.28;;;8.80;80.90;;;;;;5094892;28;20452;-52
2021/12/28 16:18:31;;;;;;;4.32;2.00;;;8.80;81.50;;;;;;5094534;28;20071;-52
2021/12/28 16:20:57;;;;;;;7.30;1.75;;;8.70;82.00;;;;;;5094904;28;20110;-50
2021/12/28 16:23:22;;;;;;;3.60;1.60;;;8.60;82.60;;;;;;5094320;28;20016;-51
2021/12/28 16:25:48;;;;;;;14.15;3.20;;;8.50;83.20;;;;;;5094010;28;20340;-49
2021/12/28 16:28:14;;;;;;;4.80;1.70;;;8.40;83.90;;;;;;5095443;28;20167;-52
2021/12/28 16:30:40;;;;;;;3.47;1.58;;;8.30;84.90;;;;;;5094917;28;20112;-51
2021/12/28 16:33:06;;;;;;;11.07;2.25;;;8.30;85.10;;;;;;5094680;28;20363;-50
2021/12/28 16:35:32;;;;;;;3.30;1.00;;;8.20;86.00;;;;;;5094612;28;20349;-53
2021/12/28 16:37:58;;;;;;;3.42;1.45;;;8.20;85.90;;;;;;5094283;28;20016;-48
2021/12/28 16:40:26;;;;;;;2.03;1.08;;;8.10;86.10;;;;;;5094315;28;20426;-51
2021/12/28 16:42:52;;;;;;;5.63;1.95;;;8.10;86.50;;;;;;5094651;28;20036;-51
2021/12/28 16:45:18;;;;;;;5.57;2.00;;;8.00;87.00;;;;;;5093634;28;20021;-50
2021/12/28 16:47:45;;;;;;;5.40;1.20;;;7.90;87.80;;;;;;5094152;28;20030;-54
2021/12/28 16:50:13;;;;;;;5.82;2.63;;;7.90;87.90;;;;;;5093733;28;20357;-51
2021/12/28 16:52:39;;;;;;;7.78;2.00;;;7.80;88.50;;;;;;5095645;28;20028;-50
2021/12/28 16:55:07;;;;;;;8.13;2.13;;;7.80;89.00;;;;;;5094524;28;20024;-49
2021/12/28 16:57:36;;;;;;;4.15;1.88;;;7.80;89.40;;;;;;5094554;28;20097;-51
2021/12/28 17:00:08;;;;;;;3.58;1.80;;;7.80;90.00;;;;;;5094558;28;20024;-49
2021/12/28 17:02:34;;;;;;;3.22;1.55;;;7.60;90.30;;;;;;5094249;28;20044;-50
2021/12/28 17:04:59;;;;;;;6.88;2.42;;;7.50;90.70;;;;;;5094412;28;20103;-50
2021/12/28 17:07:25;;;;;;;5.22;2.95;;;7.60;90.80;;;;;;5095151;28;20143;-52
2021/12/28 17:09:51;;;;;;;5.65;3.42;;;7.60;90.70;;;;;;5092661;28;20047;-50
2021/12/28 17:12:17;;;;;;;3.65;1.80;;;7.60;90.50;;;;;;5092306;28;20032;-51
2021/12/28 17:14:44;;;;;;;16.20;4.35;;;7.50;90.40;;;;;;5094045;28;20024;-49
2021/12/28 17:17:11;;;;;;;5.47;2.22;;;7.60;90.50;;;;;;5094313;28;20048;-50
2021/12/28 17:19:38;;;;;;;6.38;2.85;;;7.60;90.50;;;;;;5094961;28;20077;-49
2021/12/28 17:22:05;;;;;;;5.82;1.63;;;7.70;90.40;;;;;;5094016;28;20523;-50
2021/12/28 17:24:31;;;;;;;4.43;1.90;;;7.60;90.40;;;;;;5093941;28;20074;-51
2021/12/28 17:26:56;;;;;;;6.97;1.90;;;7.60;90.50;;;;;;5092099;28;20024;-51
2021/12/28 17:29:23;;;;;;;6.07;1.98;;;7.60;90.70;;;;;;5093869;28;20027;-51
2021/12/28 17:31:50;;;;;;;5.47;1.90;;;7.50;90.60;;;;;;5093871;28;20028;-51
2021/12/28 17:34:17;;;;;;;5.40;2.28;;;7.50;91.00;;;;;;5093965;28;20548;-51
2021/12/28 17:36:44;;;;;;;5.18;1.70;;;7.50;91.10;;;;;;5094350;28;20031;-50
2021/12/28 17:39:10;;;;;;;7.25;2.70;;;7.40;91.40;;;;;;5093448;28;20108;-51
2021/12/28 17:41:36;;;;;;;7.60;3.20;;;7.30;91.70;;;;;;5092918;28;20035;-48
2021/12/28 17:44:03;;;;;;;7.70;2.20;;;7.30;91.90;;;;;;5093445;28;20097;-52
2021/12/28 17:46:29;;;;;;;6.63;2.13;;;7.30;91.90;;;;;;5093304;28;20418;-48
2021/12/28 17:48:55;;;;;;;24.15;5.38;;;7.30;91.90;;;;;;5093467;28;20067;-50
2021/12/28 17:51:21;;;;;;;8.45;2.42;;;7.30;91.90;;;;;;5094570;28;20059;-49
2021/12/28 17:53:47;;;;;;;9.02;2.95;;;7.40;91.80;;;;;;5093116;28;20028;-50
2021/12/28 17:56:12;;;;;;;11.50;3.20;;;7.30;91.80;;;;;;5093753;28;20036;-49
2021/12/28 17:58:38;;;;;;;9.43;2.22;;;7.40;91.90;;;;;;5092971;28;20060;-52
2021/12/28 18:01:05;;;;;;;10.23;2.20;;;7.40;91.90;;;;;;5091870;28;20438;-52
2021/12/28 18:03:32;;;;;;;5.38;2.47;;;7.40;92.00;;;;;;5093436;28;20232;-52
2021/12/28 18:06:00;;;;;;;5.85;2.75;;;7.50;91.80;;;;;;5075477;28;20024;-49
2021/12/28 18:08:26;;;;;;;10.52;2.85;;;7.50;91.80;;;;;;5093219;28;20504;-51
2021/12/28 18:10:56;;;;;;;5.57;1.95;;;7.50;91.80;;;;;;5094039;28;20438;-53
2021/12/28 18:13:22;;;;;;;5.38;1.65;;;7.50;91.70;;;;;;5091947;28;20051;-53
2021/12/28 18:15:48;;;;;;;6.97;2.10;;;7.50;91.60;;;;;;5093911;28;20503;-52
2021/12/28 18:18:16;;;;;;;5.55;2.15;;;7.60;91.70;;;;;;5093978;28;20026;-51
2021/12/28 18:20:45;;;;;;;9.57;3.90;;;7.60;91.70;;;;;;5092390;28;20042;-52
2021/12/28 18:23:11;;;;;;;9.45;4.30;;;7.50;92.20;;;;;;5093757;28;20418;-49
2021/12/28 18:25:38;;;;;;;8.77;2.88;;;7.50;92.40;;;;;;5093408;28;20038;-52
2021/12/28 18:28:04;;;;;;;9.35;2.97;;;7.50;92.60;;;;;;5093589;28;20020;-50
2021/12/28 18:30:30;;;;;;;8.23;3.35;;;7.40;93.10;;;;;;5093611;28;20070;-50
2021/12/28 18:32:57;;;;;;;7.82;4.28;;;7.40;93.30;;;;;;5093711;28;20051;-52
2021/12/28 18:35:30;;;;;;;4.43;2.55;;;7.40;93.50;;;;;;5092282;28;20104;-53
2021/12/28 18:37:56;;;;;;;7.10;2.72;;;7.30;93.60;;;;;;5094623;28;20032;-49
2021/12/28 18:40:23;;;;;;;6.35;2.92;;;7.40;93.70;;;;;;5093148;28;20024;-49
2021/12/28 18:42:50;;;;;;;7.28;2.80;;;7.40;93.70;;;;;;5092992;28;20445;-48
2021/12/28 18:45:16;;;;;;;7.28;2.60;;;7.40;93.60;;;;;;5092687;28;20054;-53
2021/12/28 18:47:43;;;;;;;8.32;3.30;;;7.50;93.70;;;;;;5092668;28;20024;-50
2021/12/28 18:50:10;;;;;;;10.25;3.97;;;7.50;93.60;;;;;;5095065;28;20387;-49
2021/12/28 18:52:36;;;;;;;5.85;2.80;;;7.50;93.50;;;;;;5096149;28;20031;-50
2021/12/28 18:55:07;;;;;;;7.80;2.78;;;7.50;93.50;;;;;;5096782;28;20036;-51
2021/12/28 18:57:34;;;;;;;5.18;2.22;;;7.50;93.60;;;;;;5096502;28;20028;-46
2021/12/28 18:59:59;;;;;;;7.05;2.67;;;7.50;93.60;;;;;;5096909;28;20513;-51
2021/12/28 19:02:28;;;;;;;6.50;2.92;;;7.40;93.70;;;;;;5096677;28;20131;-52
2021/12/28 19:04:54;;;;;;;9.65;3.58;;;7.50;93.80;;;;;;5096446;28;20163;-52
2021/12/28 19:07:20;;;;;;;5.18;3.58;;;7.40;93.80;;;;;;5096079;28;20103;-50
2021/12/28 19:09:45;;;;;;;7.43;3.78;;;7.40;94.00;;;;;;5094307;28;20028;-50
2021/12/28 19:12:11;;;;;;;11.98;4.97;;;7.40;94.10;;;;;;5095881;28;20031;-52
2021/12/28 19:14:37;;;;;;;9.88;5.57;;;7.50;94.10;;;;;;5096206;28;20028;-49
2021/12/28 19:17:04;;;;;;;9.55;5.55;;;7.50;94.10;;;;;;5096450;28;20039;-48
2021/12/28 19:19:30;;;;;;;11.63;5.47;;;7.50;94.20;;;;;;5096814;28;20035;-50
2021/12/28 19:21:57;;;;;;;15.48;6.85;;;7.50;94.20;;;;;;5096432;28;20478;-53
2021/12/28 19:24:23;;;;;;;16.20;6.10;;;7.60;94.10;;;;;;5096028;28;20016;-51
2021/12/28 19:26:48;;;;;;;11.75;6.28;;;7.50;94.30;;;;;;5096216;28;20027;-53
2021/12/28 19:29:14;;;;;;;19.70;7.35;;;7.50;94.40;;;;;;5096585;28;20025;-50
2021/12/28 19:31:40;;;;;;;15.38;7.80;;;7.50;94.50;;;;;;5078289;28;20115;-49
2021/12/28 19:34:06;;;;;;;17.92;8.35;;;7.50;94.60;;;;;;5095802;28;20114;-50
2021/12/28 19:36:32;;;;;;;18.75;8.38;;;7.50;94.40;;;;;;5096411;28;20070;-53
2021/12/28 19:39:00;;;;;;;15.38;8.57;;;7.50;94.50;;;;;;5095926;28;20047;-48
2021/12/28 19:41:26;;;;;;;14.10;9.25;;;7.50;94.60;;;;;;5095504;28;20036;-49
2021/12/28 19:43:52;;;;;;;21.15;8.90;;;7.70;94.60;;;;;;5095462;28;20016;-50
2021/12/28 19:46:19;;;;;;;18.60;10.10;;;7.60;94.40;;;;;;5095404;28;20361;-50
2021/12/28 19:48:45;;;;;;;20.80;11.25;;;7.60;94.50;;;;;;5094429;28;20476;-49
2021/12/28 19:51:13;;;;;;;21.80;10.88;;;7.50;94.60;;;;;;5095621;28;20043;-52
2021/12/28 19:53:38;;;;;;;16.08;11.40;;;7.60;94.70;;;;;;5095238;28;20028;-49
2021/12/28 19:56:04;;;;;;;29.17;13.18;;;7.60;94.70;;;;;;5096098;28;20037;-54
2021/12/28 19:58:30;;;;;;;25.27;12.05;;;7.60;94.80;;;;;;5095783;28;20097;-52
2021/12/28 20:00:56;;;;;;;28.00;12.55;;;7.60;94.90;;;;;;5095629;28;20479;-52
2021/12/28 20:03:21;;;;;;;27.83;14.25;;;7.70;95.00;;;;;;5096068;28;20024;-53
2021/12/28 20:05:47;;;;;;;22.90;13.85;;;7.70;95.10;;;;;;5095675;28;20124;-39
2021/12/28 20:08:13;;;;;;;25.70;15.57;;;7.70;95.20;;;;;;5096309;28;20085;-39
2021/12/28 20:10:40;;;;;;;30.60;15.93;;;7.70;95.20;;;;;;5094390;28;20020;-40
2021/12/28 20:13:07;;;;;;;27.33;15.77;;;7.70;95.30;;;;;;5095973;28;20024;-38
2021/12/28 20:15:34;;;;;;;26.23;15.30;;;7.70;95.40;;;;;;5094080;28;20029;-40
2021/12/28 20:18:01;;;;;;;29.58;16.20;;;7.70;95.60;;;;;;5095327;28;20163;-40
2021/12/28 20:20:27;;;;;;;38.53;16.35;;;7.70;95.70;;;;;;5095665;28;20024;-40
2021/12/28 20:22:53;;;;;;;29.15;18.00;;;7.60;95.70;;;;;;5093842;28;20180;-40
2021/12/28 20:25:22;;;;;;;35.20;16.70;;;7.70;95.80;;;;;;5095451;28;20030;-39
2021/12/28 20:27:53;;;;;;;34.72;18.15;;;7.80;95.90;;;;;;5093591;28;20016;-39
2021/12/28 20:30:22;;;;;;;43.00;19.08;;;7.70;96.00;;;;;;5093413;28;20106;-39
2021/12/28 20:32:48;;;;;;;34.92;18.30;;;7.70;96.00;;;;;;5094300;28;20040;-40
2021/12/28 20:35:14;;;;;;;28.02;17.98;;;7.80;96.00;;;;;;5095128;28;20129;-39
2021/12/28 20:37:42;;;;;;;39.38;18.83;;;7.80;96.10;;;;;;5095084;28;20384;-49
2021/12/28 20:40:11;;;;;;;31.20;18.48;;;7.80;96.10;;;;;;5095365;28;20027;-53
2021/12/28 20:42:37;;;;;;;29.95;17.52;;;7.80;96.20;;;;;;5076298;28;20031;-50
2021/12/28 20:45:04;;;;;;;38.65;19.77;;;7.80;96.30;;;;;;5094206;28;20020;-50
2021/12/28 20:47:30;;;;;;;37.53;21.15;;;7.80;96.40;;;;;;5095104;28;20103;-53
2021/12/28 20:49:56;;;;;;;43.83;22.40;;;7.80;96.50;;;;;;5094622;28;20061;-53
2021/12/28 20:52:21;;;;;;;39.95;22.77;;;7.80;96.50;;;;;;5094245;28;20479;-54
2021/12/28 20:54:52;;;;;;;41.53;22.30;;;7.80;96.60;;;;;;5094511;28;20325;-51
2021/12/28 20:57:18;;;;;;;;;;;7.80;96.60;;;;;;5094763;28;20111;-49
2021/12/28 20:59:45;;;;;;;40.58;20.95;;;7.80;96.60;;;;;;5093827;28;19904;-53
2021/12/28 21:02:11;;;;;;;34.80;18.67;;;7.80;96.60;;;;;;5094354;28;20050;-52
2021/12/28 21:04:37;;;;;;;41.55;22.50;;;7.80;96.60;;;;;;5093936;28;20024;-50
2021/12/28 21:07:05;;;;;;;36.53;20.17;;;7.80;96.70;;;;;;5094180;28;20422;-49
2021/12/28 21:09:33;;;;;;;39.53;22.13;;;7.80;96.70;;;;;;5094255;28;20460;-52
2021/12/28 21:12:00;;;;;;;36.70;19.08;;;7.80;96.70;;;;;;5094140;28;20028;-52
2021/12/28 21:14:27;;;;;;;32.10;18.20;;;7.90;96.70;;;;;;5094844;28;20032;-50
2021/12/28 21:16:58;;;;;;;32.08;17.88;;;7.90;96.70;;;;;;5094255;28;20148;-51
2021/12/28 21:19:28;;;;;;;32.70;18.95;;;7.90;96.70;;;;;;5093977;28;20479;-52
2021/12/28 21:21:57;;;;;;;34.45;19.55;;;7.90;96.80;;;;;;5095485;28;20024;-52
2021/12/28 21:24:30;;;;;;;32.03;18.20;;;8.00;96.80;;;;;;5094372;28;20188;-51
2021/12/28 21:26:57;;;;;;;35.47;18.70;;;8.00;96.70;;;;;;5094491;28;20058;-48
2021/12/28 21:29:22;;;;;;;32.97;17.48;;;8.00;96.80;;;;;;5093670;28;20464;-53
2021/12/28 21:31:48;;;;;;;32.45;17.67;;;8.00;96.70;;;;;;5094097;28;20031;-48
2021/12/28 21:34:14;;;;;;;37.63;20.15;;;8.00;96.70;;;;;;5094065;28;20050;-51
2021/12/28 21:36:40;;;;;;;28.88;16.90;;;8.00;96.70;;;;;;5094429;28;20028;-48
2021/12/28 21:39:05;;;;;;;25.38;13.90;;;8.10;96.70;;;;;;5094103;28;20095;-48
2021/12/28 21:41:31;;;;;;;33.15;18.15;;;8.10;96.80;;;;;;5094431;28;20111;-48
2021/12/28 21:43:57;;;;;;;24.20;13.93;;;8.00;96.70;;;;;;5093051;28;20092;-50
2021/12/28 21:46:23;;;;;;;26.25;13.77;;;8.10;96.80;;;;;;5094053;28;20044;-47
2021/12/28 21:48:48;;;;;;;21.75;13.52;;;8.00;96.80;;;;;;5095050;28;20028;-50
2021/12/28 21:51:14;;;;;;;22.77;14.02;;;8.10;96.80;;;;;;5094364;28;20020;-52
2021/12/28 21:53:40;;;;;;;22.60;14.43;;;8.20;96.90;;;;;;5094398;28;20036;-47
2021/12/28 21:56:05;;;;;;;26.55;15.55;;;8.20;96.80;;;;;;5093964;28;20031;-55
2021/12/28 21:58:32;;;;;;;26.63;15.80;;;8.30;96.80;;;;;;5094195;28;20028;-48
2021/12/28 22:00:58;;;;;;;31.45;16.42;;;8.20;96.80;;;;;;5094451;28;20417;-49
2021/12/28 22:03:25;;;;;;;23.48;13.85;;;8.30;96.90;;;;;;5093476;28;20020;-48
2021/12/28 22:05:51;;;;;;;27.02;15.90;;;8.30;96.80;;;;;;5095113;28;20024;-47
2021/12/28 22:08:17;;;;;;;29.38;13.73;;;8.30;96.90;;;;;;5094850;28;20038;-48
2021/12/28 22:10:43;;;;;;;16.80;11.55;;;8.40;96.90;;;;;;5094035;28;20108;-51
2021/12/28 22:13:10;;;;;;;25.05;13.77;;;8.40;96.80;;;;;;5093463;28;20028;-50
2021/12/28 22:15:39;;;;;;;18.75;10.77;;;8.50;96.80;;;;;;5094129;28;20063;-47
2021/12/28 22:18:06;;;;;;;15.13;9.10;;;8.50;96.80;;;;;;5093898;28;20066;-52
2021/12/28 22:20:32;;;;;;;14.60;8.50;;;8.60;96.80;;;;;;5092700;28;20024;-47
2021/12/28 22:22:57;;;;;;;14.43;8.73;;;8.60;96.70;;;;;;5094133;28;20522;-47
2021/12/28 22:25:24;;;;;;;12.52;8.05;;;8.70;96.70;;;;;;5097271;28;20020;-49
2021/12/28 22:27:50;;;;;;;12.40;8.20;;;8.70;96.70;;;;;;5096300;28;20569;-48
2021/12/28 22:30:16;;;;;;;17.20;8.63;;;8.70;96.60;;;;;;5098800;28;20052;-50
2021/12/28 22:32:42;;;;;;;13.18;8.48;;;8.70;96.70;;;;;;5098053;28;20035;-49
2021/12/28 22:35:17;;;;;;;12.43;7.65;;;8.70;96.80;;;;;;5099132;28;20168;-52
2021/12/28 22:37:45;;;;;;;10.25;6.93;;;8.70;96.90;;;;;;5098558;28;20036;-52
2021/12/28 22:40:13;;;;;;;11.15;7.35;;;8.80;96.90;;;;;;5098654;28;20094;-51
2021/12/28 22:42:41;;;;;;;10.75;7.60;;;8.80;96.80;;;;;;5098158;28;20035;-52
2021/12/28 22:45:07;;;;;;;11.35;7.50;;;8.80;96.80;;;;;;5097895;28;20020;-50
2021/12/28 22:47:33;;;;;;;12.25;7.13;;;8.80;96.80;;;;;;5080235;28;20061;-48
2021/12/28 22:50:00;;;;;;;7.78;5.57;;;8.80;96.80;;;;;;5097962;28;20383;-49